createdAt,value
2023-05-19T00:02:28.778Z,12.57
2023-05-19T00:05:03.525Z,12.18
2023-05-19T00:07:34.958Z,12.43
2023-05-19T00:10:06.089Z,13.07
2023-05-19T00:12:40.813Z,12.07
2023-05-19T00:15:13.121Z,12.02
2023-05-19T00:17:45.098Z,10.73
2023-05-19T00:20:17.057Z,10.30
2023-05-19T00:22:50.719Z,9.32
2023-05-19T00:25:21.244Z,10.07
2023-05-19T00:27:57.748Z,9.77
2023-05-19T00:30:28.357Z,9.48
2023-05-19T00:32:59.303Z,10.73
2023-05-19T00:35:29.828Z,10.25
2023-05-19T00:38:00.256Z,11.63
2023-05-19T00:40:33.675Z,11.55
2023-05-19T00:43:06.825Z,10.80
2023-05-19T00:45:37.535Z,9.90
2023-05-19T00:48:08.320Z,11.18
2023-05-19T00:50:39.518Z,11.55
2023-05-19T00:53:13.584Z,8.90
2023-05-19T00:55:47.779Z,9.68
2023-05-19T00:58:21.069Z,9.43
2023-05-19T01:00:51.573Z,9.37
2023-05-19T01:03:22.187Z,10.10
2023-05-19T01:05:54.516Z,9.80
2023-05-19T01:08:25.576Z,9.53
2023-05-19T01:10:56.166Z,9.47
2023-05-19T01:13:31.289Z,8.23
2023-05-19T01:16:07.617Z,8.97
2023-05-19T01:18:47.051Z,8.70
2023-05-19T01:21:59.309Z,7.97
2023-05-19T01:24:48.022Z,8.43
2023-05-19T01:27:44.569Z,8.40
2023-05-19T01:30:36.566Z,9.40
2023-05-19T01:33:13.012Z,8.63
2023-05-19T01:35:44.767Z,9.23
2023-05-19T01:38:21.048Z,9.10
2023-05-19T01:40:56.092Z,7.67
2023-05-19T01:43:28.752Z,7.03
2023-05-19T01:46:05.173Z,6.60
2023-05-19T01:48:39.446Z,7.80
2023-05-19T01:51:09.839Z,6.27
2023-05-19T01:53:40.408Z,5.60
2023-05-19T01:56:11.521Z,4.90
2023-05-19T01:58:48.462Z,5.30
2023-05-19T02:01:32.673Z,5.90
2023-05-19T02:04:15.815Z,4.83
2023-05-19T02:06:55.653Z,5.53
2023-05-19T02:09:29.827Z,5.20
2023-05-19T02:12:06.250Z,4.43
2023-05-19T02:14:42.111Z,4.57
2023-05-19T02:17:17.738Z,4.23
2023-05-19T02:19:48.903Z,4.53
2023-05-19T02:22:19.510Z,4.10
2023-05-19T02:24:52.395Z,3.73
2023-05-19T02:27:23.077Z,4.80
2023-05-19T02:29:53.833Z,4.43
2023-05-19T02:32:26.162Z,4.17
2023-05-19T02:34:58.040Z,4.00
2023-05-19T02:37:29.259Z,3.07
2023-05-19T02:40:00.233Z,2.93
2023-05-19T02:42:30.628Z,3.50
2023-05-19T02:45:02.706Z,3.33
2023-05-19T02:47:37.051Z,3.27
2023-05-19T02:50:09.380Z,3.03
2023-05-19T02:52:40.092Z,2.80
2023-05-19T02:55:11.642Z,2.77
2023-05-19T02:57:48.184Z,2.40
2023-05-19T03:00:19.674Z,2.57
2023-05-19T03:02:53.850Z,2.63
2023-05-19T03:05:29.051Z,2.30
2023-05-19T03:07:59.684Z,2.70
2023-05-19T03:10:33.104Z,2.20
2023-05-19T03:13:04.498Z,2.43
2023-05-19T03:15:35.323Z,2.60
2023-05-19T03:18:15.469Z,2.33
2023-05-19T03:20:46.407Z,2.40
2023-05-19T03:23:17.322Z,2.37
2023-05-19T03:25:50.627Z,2.30
2023-05-19T03:28:21.393Z,2.17
2023-05-19T03:30:52.640Z,2.50
2023-05-19T03:33:26.060Z,2.50
2023-05-19T03:35:56.746Z,2.93
2023-05-19T03:38:27.689Z,2.93
2023-05-19T03:40:58.525Z,2.60
2023-05-19T03:43:31.445Z,3.00
2023-05-19T03:46:03.015Z,3.00
2023-05-19T03:48:37.702Z,2.13
2023-05-19T03:51:09.896Z,3.70
2023-05-19T03:53:42.858Z,2.30
2023-05-19T03:56:14.578Z,2.50
2023-05-19T03:58:46.014Z,2.70
2023-05-19T04:01:19.582Z,2.73
2023-05-19T04:03:51.847Z,2.30
2023-05-19T04:06:22.970Z,2.10
2023-05-19T04:08:53.525Z,2.47
2023-05-19T04:11:24.006Z,2.40
2023-05-19T04:13:54.511Z,2.40
2023-05-19T04:16:27.397Z,1.80
2023-05-19T04:18:59.779Z,1.67
2023-05-19T04:21:30.578Z,2.27
2023-05-19T04:24:07.184Z,2.07
2023-05-19T04:26:41.587Z,2.07
2023-05-19T04:29:18.808Z,2.43
2023-05-19T04:31:49.899Z,2.43
2023-05-19T04:34:22.796Z,2.10
2023-05-19T04:36:54.352Z,2.40
2023-05-19T04:39:24.942Z,2.13
2023-05-19T04:41:56.206Z,2.13
2023-05-19T04:44:27.181Z,3.03
2023-05-19T04:46:58.694Z,2.50
2023-05-19T04:49:30.928Z,2.47
2023-05-19T04:52:02.179Z,2.17
2023-05-19T04:54:35.799Z,1.87
2023-05-19T04:57:06.531Z,1.90
2023-05-19T04:59:37.391Z,1.80
2023-05-19T05:02:08.652Z,1.70
2023-05-19T05:04:43.510Z,2.10
2023-05-19T05:07:14.347Z,2.00
2023-05-19T05:09:47.811Z,2.30
2023-05-19T05:12:24.867Z,2.37
2023-05-19T05:14:59.147Z,2.30
2023-05-19T05:17:30.762Z,2.57
2023-05-19T05:20:06.486Z,2.77
2023-05-19T05:22:39.519Z,2.60
2023-05-19T05:25:11.883Z,2.87
2023-05-19T05:27:43.466Z,2.70
2023-05-19T05:30:14.893Z,3.43
2023-05-19T05:32:46.566Z,3.20
2023-05-19T05:35:19.089Z,2.30
2023-05-19T05:37:49.674Z,2.20
2023-05-19T05:40:25.460Z,2.70
2023-05-19T05:42:58.682Z,2.40
2023-05-19T05:45:29.543Z,2.43
2023-05-19T05:48:00.965Z,1.90
2023-05-19T05:50:34.048Z,2.17
2023-05-19T05:53:09.054Z,2.77
2023-05-19T05:55:40.293Z,2.50
2023-05-19T05:58:12.156Z,2.40
2023-05-19T06:00:46.501Z,2.27
2023-05-19T06:03:17.820Z,2.47
2023-05-19T06:05:50.256Z,2.27
2023-05-19T06:08:20.931Z,2.07
2023-05-19T06:10:51.552Z,2.27
2023-05-19T06:13:24.923Z,2.10
2023-05-19T06:15:55.943Z,2.27
2023-05-19T06:18:26.708Z,2.60
2023-05-19T06:20:59.094Z,2.30
2023-05-19T06:23:30.123Z,2.97
2023-05-19T06:26:00.903Z,2.53
2023-05-19T06:28:37.194Z,2.80
2023-05-19T06:31:07.804Z,2.97
2023-05-19T06:33:41.429Z,2.20
2023-05-19T06:36:14.669Z,3.13
2023-05-19T06:38:45.302Z,2.80
2023-05-19T06:41:16.174Z,3.47
2023-05-19T06:43:46.895Z,2.40
2023-05-19T06:46:18.658Z,2.60
2023-05-19T06:48:52.782Z,2.70
2023-05-19T06:51:24.998Z,2.57
2023-05-19T06:53:59.756Z,2.97
2023-05-19T06:56:30.329Z,2.50
2023-05-19T06:59:06.915Z,2.90
2023-05-19T07:01:37.675Z,2.67
2023-05-19T07:04:08.828Z,2.53
2023-05-19T07:06:41.294Z,2.20
2023-05-19T07:09:11.814Z,2.60
2023-05-19T07:11:43.103Z,2.40
2023-05-19T07:14:16.454Z,2.67
2023-05-19T07:16:47.378Z,2.27
2023-05-19T07:19:20.233Z,2.80
2023-05-19T07:21:52.557Z,2.57
2023-05-19T07:24:23.829Z,2.17
2023-05-19T07:26:54.552Z,2.20
2023-05-19T07:29:25.280Z,2.33
2023-05-19T07:32:00.186Z,2.30
2023-05-19T07:34:31.009Z,2.50
2023-05-19T07:37:03.256Z,2.30
2023-05-19T07:39:34.073Z,2.40
2023-05-19T07:42:04.694Z,2.50
2023-05-19T07:44:38.102Z,2.20
2023-05-19T07:47:10.931Z,2.57
2023-05-19T07:49:44.305Z,2.87
2023-05-19T07:52:16.653Z,2.83
2023-05-19T07:54:47.500Z,3.27
2023-05-19T07:57:18.104Z,3.47
2023-05-19T07:59:48.893Z,2.57
2023-05-19T08:02:19.554Z,2.70
2023-05-19T08:04:50.449Z,2.30
2023-05-19T08:07:26.207Z,2.20
2023-05-19T08:09:57.013Z,2.90
2023-05-19T08:12:27.723Z,2.40
2023-05-19T08:15:00.381Z,2.60
2023-05-19T08:17:34.631Z,2.20
2023-05-19T08:20:08.083Z,2.57
2023-05-19T08:22:40.610Z,3.07
2023-05-19T08:25:14.835Z,2.73
2023-05-19T08:27:48.165Z,2.87
2023-05-19T08:30:21.363Z,4.77
2023-05-19T08:32:52.181Z,2.93
2023-05-19T08:35:23.005Z,3.17
2023-05-19T08:37:55.267Z,2.90
2023-05-19T08:40:32.562Z,2.93
2023-05-19T08:43:09.096Z,3.00
2023-05-19T08:45:40.146Z,2.60
2023-05-19T08:48:13.566Z,2.57
2023-05-19T08:50:50.109Z,2.47
2023-05-19T08:53:33.839Z,2.70
2023-05-19T08:56:12.445Z,2.83
2023-05-19T08:58:44.720Z,3.10
2023-05-19T09:01:18.499Z,3.57
2023-05-19T09:03:50.881Z,12.63
2023-05-19T09:06:22.179Z,45.17
2023-05-19T09:08:54.371Z,9.27
2023-05-19T09:11:25.018Z,3.60
2023-05-19T09:13:55.608Z,2.83
2023-05-19T09:16:27.875Z,2.23
2023-05-19T09:19:12.060Z,2.67
2023-05-19T09:21:43.993Z,2.77
2023-05-19T09:24:16.896Z,2.83
2023-05-19T09:26:49.912Z,2.90
2023-05-19T09:29:21.215Z,2.65
2023-05-19T09:31:52.988Z,2.88
2023-05-19T09:34:36.012Z,3.25
2023-05-19T09:37:07.007Z,3.08
2023-05-19T09:39:42.123Z,3.85
2023-05-19T09:42:14.831Z,3.72
2023-05-19T09:44:48.412Z,3.72
2023-05-19T09:47:22.053Z,3.53
2023-05-19T09:49:53.147Z,3.35
2023-05-19T09:52:24.576Z,3.72
2023-05-19T09:54:57.757Z,4.38
2023-05-19T09:57:36.812Z,3.35
2023-05-19T10:00:18.246Z,2.80
2023-05-19T10:02:51.249Z,3.45
2023-05-19T10:05:23.106Z,3.05
2023-05-19T10:07:55.449Z,3.72
2023-05-19T10:10:29.823Z,3.90
2023-05-19T10:13:01.956Z,3.85
2023-05-19T10:15:40.737Z,3.90
2023-05-19T10:18:17.599Z,3.47
2023-05-19T10:20:52.360Z,3.13
2023-05-19T10:23:23.258Z,3.60
2023-05-19T10:26:00.980Z,2.88
2023-05-19T10:28:38.082Z,3.05
2023-05-19T10:31:12.826Z,3.15
2023-05-19T10:33:59.708Z,3.15
2023-05-19T10:36:47.165Z,3.10
2023-05-19T10:39:22.352Z,3.92
2023-05-19T10:42:07.475Z,3.30
2023-05-19T10:45:03.597Z,3.83
2023-05-19T10:47:35.864Z,3.80
2023-05-19T10:50:10.943Z,3.35
2023-05-19T10:52:42.191Z,3.17
2023-05-19T10:55:16.564Z,3.05
2023-05-19T10:57:59.146Z,3.45
2023-05-19T11:00:34.184Z,3.42
2023-05-19T11:03:16.708Z,3.40
2023-05-19T11:05:55.917Z,3.90
2023-05-19T11:08:36.084Z,3.30
2023-05-19T11:11:16.756Z,3.63
2023-05-19T11:13:51.415Z,3.95
2023-05-19T11:16:38.105Z,4.68
2023-05-19T11:19:09.781Z,4.20
2023-05-19T11:21:55.809Z,4.72
2023-05-19T11:24:40.760Z,4.85
2023-05-19T11:27:28.473Z,4.75
2023-05-19T11:30:15.298Z,4.63
2023-05-19T11:32:51.160Z,4.60
2023-05-19T11:35:26.047Z,4.90
2023-05-19T11:38:00.046Z,4.85
2023-05-19T11:40:31.600Z,5.70
2023-05-19T11:43:05.315Z,4.95
2023-05-19T11:45:37.970Z,5.72
2023-05-19T11:48:11.279Z,5.80
2023-05-19T11:50:46.501Z,3.65
2023-05-19T11:53:18.470Z,6.00
2023-05-19T11:55:52.669Z,5.85
2023-05-19T11:58:29.669Z,6.38
2023-05-19T12:01:07.621Z,5.68
2023-05-19T12:03:41.407Z,5.97
2023-05-19T12:06:12.356Z,6.07
2023-05-19T12:08:43.063Z,6.40
2023-05-19T12:11:21.222Z,6.80
2023-05-19T12:13:55.478Z,6.85
2023-05-19T12:16:35.082Z,5.88
2023-05-19T12:19:12.800Z,6.10
2023-05-19T12:21:43.889Z,5.60
2023-05-19T12:24:14.689Z,5.30
2023-05-19T12:26:45.279Z,5.30
2023-05-19T12:29:17.137Z,5.35
2023-05-19T12:31:54.985Z,5.80
2023-05-19T12:34:26.642Z,5.78
2023-05-19T12:36:57.423Z,6.45
2023-05-19T12:39:41.864Z,6.30
2023-05-19T12:42:16.502Z,5.63
2023-05-19T12:44:52.810Z,6.38
2023-05-19T12:47:41.981Z,5.97
2023-05-19T12:50:14.717Z,7.22
2023-05-19T12:52:46.611Z,5.85
2023-05-19T12:55:21.383Z,5.30
2023-05-19T12:57:52.633Z,5.32
2023-05-19T13:00:26.705Z,5.28
2023-05-19T13:03:08.593Z,4.70
2023-05-19T13:05:45.446Z,5.43
2023-05-19T13:08:21.001Z,5.18
2023-05-19T13:10:53.391Z,5.57
2023-05-19T13:13:24.187Z,4.70
2023-05-19T13:15:54.991Z,5.20
2023-05-19T13:18:35.801Z,5.22
2023-05-19T13:21:10.473Z,4.60
2023-05-19T13:23:47.066Z,5.00
2023-05-19T13:26:19.407Z,4.60
2023-05-19T13:28:50.686Z,4.80
2023-05-19T13:31:25.400Z,4.10
2023-05-19T13:33:58.848Z,4.93
2023-05-19T13:36:30.281Z,4.88
2023-05-19T13:39:01.717Z,5.32
2023-05-19T13:41:33.304Z,4.90
2023-05-19T13:44:04.881Z,4.85
2023-05-19T13:46:44.679Z,4.47
2023-05-19T13:49:17.622Z,4.35
2023-05-19T13:51:51.356Z,5.25
2023-05-19T13:54:27.260Z,3.95
2023-05-19T13:56:58.336Z,4.45
2023-05-19T13:59:32.445Z,4.05
2023-05-19T14:02:06.322Z,3.75
2023-05-19T14:04:43.428Z,3.53
2023-05-19T14:07:14.881Z,3.40
2023-05-19T14:09:45.767Z,3.30
2023-05-19T14:12:16.704Z,2.90
2023-05-19T14:14:49.267Z,2.90
2023-05-19T14:17:21.559Z,3.20
2023-05-19T14:20:00.211Z,3.05
2023-05-19T14:22:31.400Z,2.80
2023-05-19T14:25:03.291Z,2.70
2023-05-19T14:27:36.290Z,2.95
2023-05-19T14:30:07.871Z,2.63
2023-05-19T14:32:38.985Z,2.67
2023-05-19T14:35:16.742Z,2.15
2023-05-19T14:37:47.459Z,2.42
2023-05-19T14:40:25.592Z,2.30
2023-05-19T14:44:12.376Z,1.70
2023-05-19T14:46:43.577Z,2.30
2023-05-19T14:49:14.638Z,2.20
2023-05-19T14:51:47.859Z,2.22
2023-05-19T14:57:34.763Z,2.10
2023-05-19T15:00:06.047Z,2.05
2023-05-19T15:02:43.197Z,2.22
2023-05-19T15:05:18.628Z,2.17
2023-05-19T15:07:58.040Z,2.60
2023-05-19T15:10:29.284Z,2.20
2023-05-19T15:13:01.312Z,2.22
2023-05-19T15:15:32.555Z,2.67
2023-05-19T15:18:03.642Z,2.33
2023-05-19T15:20:41.910Z,3.03
2023-05-19T15:23:45.907Z,2.38
2023-05-19T15:26:19.223Z,2.50
2023-05-19T15:28:50.211Z,2.42
2023-05-19T15:31:21.497Z,2.55
2023-05-19T15:33:56.309Z,2.38
2023-05-19T15:37:13.184Z,2.35
2023-05-19T15:40:25.443Z,2.00
2023-05-19T15:42:59.687Z,2.00
2023-05-19T15:45:32.119Z,2.33
2023-05-19T15:48:05.229Z,2.08
2023-05-19T15:50:36.665Z,2.17
2023-05-19T15:53:09.183Z,2.10
2023-05-19T15:55:42.021Z,2.40
2023-05-19T15:58:13.235Z,2.67
2023-05-19T16:00:44.075Z,2.20
2023-05-19T16:03:15.229Z,2.20
2023-05-19T16:05:55.093Z,2.55
2023-05-19T16:10:58.935Z,2.55
2023-05-19T16:13:34.536Z,2.55
2023-05-19T16:16:05.841Z,2.42
2023-05-19T16:18:39.578Z,2.42
2023-05-19T16:21:11.415Z,2.47
2023-05-19T16:23:42.824Z,2.65
2023-05-19T16:26:18.293Z,2.38
2023-05-19T16:28:49.498Z,2.35
2023-05-19T16:31:20.823Z,2.63
2023-05-19T16:33:51.903Z,2.33
2023-05-19T16:36:23.728Z,2.70
2023-05-19T16:38:55.172Z,2.75
2023-05-19T16:41:29.209Z,3.38
2023-05-19T16:44:32.998Z,3.28
2023-05-19T16:47:31.270Z,3.35
2023-05-19T16:50:02.802Z,3.38
2023-05-19T16:52:36.270Z,3.60
2023-05-19T16:55:08.144Z,3.53
2023-05-19T16:57:40.879Z,3.90
2023-05-19T17:00:13.472Z,3.85
2023-05-19T17:02:44.669Z,4.28
2023-05-19T17:05:16.442Z,5.05
2023-05-19T17:07:47.710Z,4.30
2023-05-19T17:10:19.307Z,3.70
2023-05-19T17:12:52.765Z,3.88
2023-05-19T17:15:24.088Z,3.35
2023-05-19T17:17:56.430Z,3.47
2023-05-19T17:20:35.184Z,3.17
2023-05-19T17:23:09.126Z,4.03
2023-05-19T17:25:43.305Z,3.67
2023-05-19T17:28:18.642Z,3.40
2023-05-19T17:30:52.841Z,3.20
2023-05-19T17:33:25.001Z,3.25
2023-05-19T17:35:56.177Z,3.90
2023-05-19T17:38:27.405Z,3.55
2023-05-19T17:41:01.741Z,3.42
2023-05-19T17:43:34.406Z,3.50
2023-05-19T17:46:09.294Z,3.38
2023-05-19T17:48:40.773Z,3.55
2023-05-19T17:51:16.849Z,3.05
2023-05-19T17:53:49.102Z,3.00
2023-05-19T17:56:27.029Z,2.63
2023-05-19T17:59:05.551Z,3.20
2023-05-19T18:01:39.008Z,3.00
2023-05-19T18:04:15.331Z,3.35
2023-05-19T18:06:56.878Z,3.10
2023-05-19T18:09:29.897Z,3.03
2023-05-19T18:12:02.903Z,3.53
2023-05-19T18:14:41.328Z,3.08
2023-05-19T18:17:18.599Z,3.17
2023-05-19T18:19:52.462Z,3.40
2023-05-19T18:22:23.824Z,3.00
2023-05-19T18:24:55.073Z,3.40
2023-05-19T18:27:29.254Z,3.38
2023-05-19T18:30:02.355Z,3.53
2023-05-19T18:32:33.691Z,2.47
2023-05-19T18:35:09.028Z,2.28
2023-05-19T18:37:44.855Z,2.60
2023-05-19T18:40:16.248Z,3.10
2023-05-19T18:42:47.889Z,3.00
2023-05-19T18:45:21.012Z,2.97
2023-05-19T18:47:54.324Z,2.83
2023-05-19T18:50:25.396Z,2.85
2023-05-19T18:52:56.400Z,3.38
2023-05-19T18:55:29.333Z,3.47
2023-05-19T18:58:03.227Z,3.50
2023-05-19T19:00:36.234Z,3.28
2023-05-19T19:03:08.417Z,2.88
2023-05-19T19:05:39.503Z,2.63
2023-05-19T19:08:11.067Z,2.10
2023-05-19T19:10:42.392Z,2.08
2023-05-19T19:13:13.077Z,2.03
2023-05-19T19:15:45.738Z,2.35
2023-05-19T19:18:16.916Z,2.03
2023-05-19T19:20:48.108Z,2.47
2023-05-19T19:23:18.933Z,3.08
2023-05-19T19:25:49.997Z,4.25
2023-05-19T19:28:20.832Z,4.30
2023-05-19T19:30:56.182Z,5.35
2023-05-19T19:33:27.401Z,5.47
2023-05-19T19:36:00.854Z,5.85
2023-05-19T19:38:31.825Z,6.03
2023-05-19T19:41:02.828Z,5.53
2023-05-19T19:43:33.845Z,5.85
2023-05-19T19:46:08.091Z,3.47
2023-05-19T19:48:38.917Z,4.15
2023-05-19T19:51:09.874Z,4.07
2023-05-19T19:53:40.729Z,3.85
2023-05-19T19:56:11.582Z,4.03
2023-05-19T19:58:42.297Z,3.95
2023-05-19T20:01:15.348Z,4.30
2023-05-19T20:03:46.144Z,3.72
2023-05-19T20:06:19.350Z,4.13
2023-05-19T20:08:52.996Z,3.10
2023-05-19T20:11:25.494Z,2.55
2023-05-19T20:13:56.423Z,2.47
2023-05-19T20:16:29.208Z,2.03
2023-05-19T20:19:00.398Z,2.50
2023-05-19T20:22:03.201Z,2.80
2023-05-19T20:27:57.303Z,2.90
2023-05-19T20:30:28.245Z,3.00
2023-05-19T20:33:00.660Z,2.63
2023-05-19T20:35:31.500Z,2.35
2023-05-19T20:38:04.069Z,2.20
2023-05-19T20:41:36.467Z,2.83
2023-05-19T20:44:07.383Z,2.35
2023-05-19T20:46:38.055Z,3.10
2023-05-19T20:49:10.376Z,3.30
2023-05-19T20:52:26.683Z,3.03
2023-05-19T20:55:50.497Z,3.30
2023-05-19T21:03:05.701Z,3.28
2023-05-19T21:05:45.470Z,3.08
2023-05-19T21:08:16.137Z,3.38
2023-05-19T21:10:46.841Z,2.97
2023-05-19T21:13:46.875Z,2.90
2023-05-19T21:16:17.660Z,2.58
2023-05-19T21:18:48.405Z,3.10
2023-05-19T21:21:25.266Z,3.03
2023-05-19T21:24:48.761Z,3.10
2023-05-19T21:27:50.939Z,2.65
2023-05-19T21:30:21.872Z,2.92
2023-05-19T21:33:03.221Z,3.00
2023-05-19T21:35:33.896Z,2.95
2023-05-19T21:38:15.658Z,3.17
2023-05-19T21:41:02.462Z,3.13
2023-05-19T21:43:33.190Z,2.95
2023-05-19T21:46:04.191Z,2.95
2023-05-19T21:48:37.886Z,2.72
2023-05-19T21:51:08.817Z,2.72
2023-05-19T21:53:41.031Z,2.95
2023-05-19T21:56:12.224Z,2.80
2023-05-19T21:58:48.568Z,2.78
2023-05-19T22:01:19.295Z,2.92
2023-05-19T22:04:02.316Z,3.03
2023-05-19T22:06:37.451Z,3.00
2023-05-19T22:09:10.051Z,2.83
2023-05-19T22:11:40.566Z,2.50
2023-05-19T22:14:11.766Z,2.60
2023-05-19T22:16:42.963Z,3.22
2023-05-19T22:19:27.619Z,2.92
2023-05-19T22:22:13.089Z,3.42
2023-05-19T22:24:49.964Z,5.93
2023-05-19T22:28:01.037Z,3.88
2023-05-19T22:30:32.171Z,3.00
2023-05-19T22:33:03.090Z,2.67
2023-05-19T22:35:36.656Z,2.85
2023-05-19T22:38:08.815Z,3.20
2023-05-19T22:40:42.564Z,7.45
2023-05-19T22:43:13.359Z,3.78
2023-05-19T22:45:44.103Z,2.67
2023-05-19T22:48:17.322Z,6.30
2023-05-19T22:50:48.099Z,3.38
2023-05-19T22:53:22.769Z,2.70
2023-05-19T22:55:55.047Z,2.90
2023-05-19T22:58:25.580Z,2.58
2023-05-19T23:00:59.304Z,3.80
2023-05-19T23:03:30.013Z,2.90
2023-05-19T23:06:00.657Z,2.60
2023-05-19T23:08:34.062Z,2.40
2023-05-19T23:11:08.252Z,4.40
2023-05-19T23:13:38.847Z,8.85
2023-05-19T23:16:12.183Z,6.82
2023-05-19T23:18:42.952Z,3.70
2023-05-19T23:21:16.237Z,3.17
2023-05-19T23:23:46.923Z,2.97
2023-05-19T23:26:22.312Z,3.40
2023-05-19T23:28:56.083Z,3.33
2023-05-19T23:31:26.793Z,2.75
2023-05-19T23:34:28.101Z,2.63
2023-05-19T23:40:46.053Z,2.70
2023-05-19T23:43:18.545Z,3.20
2023-05-19T23:45:51.804Z,2.92
2023-05-19T23:48:22.322Z,2.83
2023-05-19T23:50:52.972Z,4.15
2023-05-19T23:53:23.519Z,7.15
2023-05-19T23:55:55.316Z,3.42
2023-05-19T23:58:28.669Z,4.18
